Glenview, Illinois
Current Conditions -  °F | °C
As of 11:14 AM on Tuesday 21 Oct 2014 (Local Time) from KPWK Reporting Station
Overcast Overcast  
Wind Chill: 52°   Ceiling: 4800
Heat Index: 52°   Visibility: 10mi
Dew Point: 40°   Wind: 13mph
Humidity: 63%   Direction: 360°N
Pressure: 30.18"   Gusts: NA
Location:  42.08°N, 87.8°W
Report Text: KPWK 211614Z 36011KT 10SM SCT024 OVC048 11/04 A3018 RMK AO2 T01110044
Loading
Personal Weather Stations






























Interactive Weather Map
Tropical Storm Tracking
New forecast layout! Learn more

10-Day Weather Forecast

Advertisements
Track Severe Weather on mobile